Terminal Aerodrome Forecast
Issued by NWS State College, PA

Current Version | Previous Version | Text Only | Print | Product List | Glossary On
Versions: 1 2 3 4 5 6 7 8 9 10 11 12 13 14 15 16 17 18 19 20 21 22 23 24 25
000
FTUS41 KCTP 252138 AAA
TAFIPT
TAF AMD
KIPT 252138Z 2522/2618 09009KT P6SM -RA OVC025
     FM260000 08007KT 6SM -RA BR OVC015
     FM260500 VRB02KT 5SM BR OVC012
     FM261700 VRB03KT P6SM OVC025=

USA.gov is the U.S. government's official web portal to all federal, state and local government web resources and services.